Time;durP1;ratioP1;P1;durP2;ratioP2;P2;SDS_P1;SDS_P2;PMS_P1;PMS_P2;Temp;Humidity;BMP_temperature;BMP_pressure;BME280_temperature;BME280_humidity;BME280_pressure;Samples;Min_cycle;Max_cycle;Signal;HPM_P1;HPM_P2
2021/01/04 00:02:12;;;;;;;39.03;24.30;;;3.40;98.10;;;;;;5075866;28;20241;-80
2021/01/04 00:05:13;;;;;;;35.13;23.92;;;3.40;97.60;;;;;;5085475;28;20195;-80
2021/01/04 00:08:12;;;;;;;37.33;21.52;;;3.30;97.50;;;;;;5070284;28;20266;-79
2021/01/04 00:10:55;;;;;;;32.58;21.77;;;3.30;97.60;;;;;;5052720;28;20631;-80
2021/01/04 00:13:30;;;;;;;36.85;24.15;;;3.20;97.60;;;;;;5073397;28;20230;-79
2021/01/04 00:16:03;;;;;;;31.90;23.33;;;3.10;97.60;;;;;;5075879;28;20203;-80
2021/01/04 00:18:43;;;;;;;35.92;21.58;;;3.10;97.80;;;;;;5079166;28;20222;-80
2021/01/04 00:21:19;;;;;;;35.28;21.52;;;3.10;97.90;;;;;;5090379;28;20217;-79
2021/01/04 00:24:01;;;;;;;36.58;22.38;;;3.10;97.90;;;;;;5080385;28;20191;-80
2021/01/04 00:26:34;;;;;;;36.05;23.73;;;3.10;97.80;;;;;;5075705;28;20203;-80
2021/01/04 00:29:01;;;;;;;31.58;21.58;;;3.10;97.80;;;;;;5071091;28;20688;-80
2021/01/04 00:31:32;;;;;;;36.67;24.15;;;3.00;97.70;;;;;;5070688;28;20210;-80
2021/01/04 00:34:06;;;;;;;36.58;22.52;;;3.10;97.80;;;;;;5097329;28;20226;-80
2021/01/04 00:36:39;;;;;;;36.25;22.65;;;3.00;97.90;;;;;;5110464;28;20601;-80
2021/01/04 00:39:30;;;;;;;33.50;22.80;;;3.00;97.90;;;;;;5087939;28;20187;-79
2021/01/04 00:42:03;;;;;;;33.53;23.02;;;3.00;97.80;;;;;;5086005;28;20739;-80
2021/01/04 00:44:42;;;;;;;36.08;23.98;;;3.10;97.70;;;;;;5076215;28;20203;-80
2021/01/04 00:47:16;;;;;;;39.38;24.48;;;3.20;97.70;;;;;;5069383;28;20245;-79
2021/01/04 00:49:48;;;;;;;41.70;24.45;;;3.20;97.50;;;;;;5071805;28;20199;-80
2021/01/04 00:52:25;;;;;;;34.15;22.33;;;3.20;97.50;;;;;;5073476;28;20223;-80
2021/01/04 00:55:11;;;;;;;35.65;22.75;;;3.20;97.40;;;;;;5078827;28;20203;-80
2021/01/04 00:58:00;;;;;;;37.05;23.23;;;3.20;97.40;;;;;;5089475;28;20198;-79
2021/01/04 01:00:31;;;;;;;34.03;21.75;;;3.10;97.50;;;;;;5069393;28;20277;-80
2021/01/04 01:03:27;;;;;;;38.08;23.77;;;3.20;97.70;;;;;;5073130;28;20201;-80
2021/01/04 01:06:02;;;;;;;36.72;24.05;;;3.10;97.60;;;;;;5069953;28;20750;-80
2021/01/04 01:08:31;;;;;;;37.35;22.63;;;3.10;97.70;;;;;;5073405;28;20198;-79
2021/01/04 01:11:01;;;;;;;38.10;23.00;;;3.10;97.80;;;;;;5069732;28;20270;-79
2021/01/04 01:13:43;;;;;;;36.15;22.35;;;3.10;97.70;;;;;;5071977;28;20553;-80
2021/01/04 01:16:22;;;;;;;36.88;22.63;;;3.10;98.10;;;;;;5070417;28;20200;-80
2021/01/04 01:19:06;;;;;;;32.85;21.30;;;3.00;97.80;;;;;;5070533;28;20195;-80
2021/01/04 01:21:34;;;;;;;41.63;24.23;;;3.10;97.80;;;;;;5070100;28;20660;-80
2021/01/04 01:24:01;;;;;;;40.15;23.08;;;3.00;97.80;;;;;;5084950;28;20649;-80
2021/01/04 01:27:07;;;;;;;36.75;23.67;;;3.00;97.80;;;;;;5092285;28;20229;-80
2021/01/04 01:30:25;;;;;;;45.20;23.67;;;3.00;97.90;;;;;;5074204;28;20203;-80
2021/01/04 01:33:05;;;;;;;44.80;25.60;;;3.00;97.90;;;;;;5061752;28;20250;-80
2021/01/04 01:35:53;;;;;;;37.60;23.23;;;3.00;97.90;;;;;;5074074;28;20609;-80
2021/01/04 01:38:51;;;;;;;37.20;23.88;;;3.00;97.90;;;;;;5073597;28;20227;-80
2021/01/04 01:41:41;;;;;;;34.45;22.52;;;3.00;98.00;;;;;;5080432;28;20779;-80
2021/01/04 01:44:19;;;;;;;37.90;23.10;;;3.00;97.80;;;;;;5083065;28;20230;-80
2021/01/04 01:46:49;;;;;;;37.60;24.15;;;3.00;97.80;;;;;;5075390;28;20273;-80
2021/01/04 01:49:33;;;;;;;40.72;24.23;;;3.00;97.70;;;;;;5090164;28;20195;-80
2021/01/04 01:52:23;;;;;;;35.45;24.30;;;3.00;97.70;;;;;;5084944;28;20732;-80
2021/01/04 01:55:14;;;;;;;32.55;22.45;;;3.00;97.70;;;;;;5073233;28;20231;-80
2021/01/04 01:58:00;;;;;;;37.72;23.80;;;3.00;97.70;;;;;;5082696;28;20199;-79
2021/01/04 02:00:36;;;;;;;40.28;23.27;;;3.00;97.70;;;;;;5081630;28;20234;-79
2021/01/04 02:03:09;;;;;;;39.95;24.20;;;3.00;98.10;;;;;;5090938;28;20187;-80
2021/01/04 02:06:17;;;;;;;36.90;23.55;;;3.00;97.70;;;;;;5086708;28;20277;-80
2021/01/04 02:08:52;;;;;;;43.35;25.60;;;3.00;97.50;;;;;;5079627;28;20218;-79
2021/01/04 02:11:31;;;;;;;41.08;24.67;;;2.90;97.60;;;;;;5089724;28;20257;-80
2021/01/04 02:14:08;;;;;;;40.75;25.00;;;3.00;97.80;;;;;;5087441;28;20205;-79
2021/01/04 02:16:41;;;;;;;38.92;23.67;;;2.90;97.70;;;;;;5083609;28;20248;-79
2021/01/04 02:19:27;;;;;;;40.67;26.55;;;3.00;97.80;;;;;;5082727;28;20236;-79
2021/01/04 02:22:28;;;;;;;39.70;24.95;;;3.00;97.70;;;;;;5074543;28;20244;-79
2021/01/04 02:24:57;;;;;;;38.17;22.95;;;3.00;97.70;;;;;;5086194;28;20225;-80
2021/01/04 02:27:28;;;;;;;36.58;22.40;;;3.00;97.70;;;;;;5070833;28;20562;-80
2021/01/04 02:29:55;;;;;;;33.92;23.48;;;3.00;97.70;;;;;;5070979;28;20199;-80
2021/01/04 02:32:22;;;;;;;35.80;23.30;;;2.90;97.60;;;;;;5087014;28;20230;-80
2021/01/04 02:34:52;;;;;;;37.75;23.75;;;3.00;97.60;;;;;;5086916;28;20256;-80
2021/01/04 02:37:20;;;;;;;40.13;26.35;;;2.90;97.60;;;;;;5089370;28;20202;-80
2021/01/04 02:39:52;;;;;;;40.72;23.80;;;2.90;97.60;;;;;;5089223;28;20202;-80
2021/01/04 02:42:34;;;;;;;42.05;25.80;;;3.00;97.70;;;;;;5090182;28;20297;-79
2021/01/04 02:45:13;;;;;;;36.42;24.75;;;3.10;97.50;;;;;;5086157;28;20646;-80
2021/01/04 02:48:11;;;;;;;38.15;22.00;;;3.00;97.40;;;;;;5088651;28;20240;-79
2021/01/04 02:51:00;;;;;;;38.45;23.70;;;3.00;97.60;;;;;;5086484;28;20197;-80
2021/01/04 02:53:54;;;;;;;39.47;24.67;;;2.90;97.70;;;;;;5080830;28;20197;-79
2021/01/04 02:56:45;;;;;;;34.88;22.98;;;2.90;98.00;;;;;;5070188;28;20211;-80
2021/01/04 02:59:43;;;;;;;32.92;22.20;;;2.90;97.80;;;;;;5071042;28;20191;-80
2021/01/04 03:02:26;;;;;;;43.92;25.45;;;3.00;97.70;;;;;;5069787;28;20703;-79
2021/01/04 03:05:07;;;;;;;36.55;23.77;;;2.90;97.70;;;;;;5087441;28;20195;-80
2021/01/04 03:07:51;;;;;;;39.15;24.45;;;3.00;97.70;;;;;;5088179;28;20245;-80
2021/01/04 03:10:30;;;;;;;37.45;24.35;;;2.90;97.70;;;;;;5089678;28;20277;-80
2021/01/04 03:13:13;;;;;;;36.90;24.65;;;2.90;97.80;;;;;;5084834;28;20226;-80
2021/01/04 03:16:05;;;;;;;39.40;22.70;;;3.00;98.00;;;;;;5069817;28;20284;-79
2021/01/04 03:18:47;;;;;;;41.13;23.52;;;3.00;97.90;;;;;;5069731;28;20230;-79
2021/01/04 03:21:24;;;;;;;39.65;23.70;;;3.10;97.70;;;;;;5089564;28;20197;-79
2021/01/04 03:24:06;;;;;;;34.72;24.13;;;3.00;97.50;;;;;;5081927;28;20226;-79
2021/01/04 03:26:47;;;;;;;35.88;24.15;;;3.00;97.60;;;;;;5069990;28;20277;-80
2021/01/04 03:29:27;;;;;;;41.10;24.92;;;3.00;97.90;;;;;;5083187;28;20205;-80
2021/01/04 03:32:08;;;;;;;35.72;24.38;;;3.00;97.80;;;;;;5085489;28;20306;-80
2021/01/04 03:34:41;;;;;;;38.75;23.95;;;3.00;97.70;;;;;;5080667;28;20206;-79
2021/01/04 03:37:22;;;;;;;38.97;24.52;;;3.10;97.80;;;;;;5070316;28;20187;-79
2021/01/04 03:39:57;;;;;;;37.67;24.70;;;3.00;97.70;;;;;;5090486;28;20223;-80
2021/01/04 03:42:43;;;;;;;33.42;25.35;;;3.00;97.70;;;;;;5107018;28;20225;-79
2021/01/04 03:45:29;;;;;;;36.83;23.98;;;2.90;97.70;;;;;;5086535;28;20194;-79
2021/01/04 03:48:08;;;;;;;36.20;23.60;;;2.90;97.80;;;;;;5087524;28;20232;-80
2021/01/04 03:50:52;;;;;;;34.50;24.17;;;3.00;97.80;;;;;;5090084;28;20201;-80
2021/01/04 03:53:23;;;;;;;39.28;23.02;;;2.90;97.70;;;;;;5087921;28;20613;-79
2021/01/04 03:55:57;;;;;;;42.85;25.42;;;3.00;97.80;;;;;;5089922;28;20206;-80
2021/01/04 03:58:32;;;;;;;34.60;22.08;;;3.10;98.00;;;;;;5078510;28;20221;-80
2021/01/04 04:01:03;;;;;;;38.72;24.52;;;3.10;97.90;;;;;;5073422;28;20263;-79
2021/01/04 04:03:43;;;;;;;39.80;26.38;;;3.00;97.80;;;;;;5084266;28;20283;-80
2021/01/04 04:06:12;;;;;;;33.38;24.17;;;3.10;97.90;;;;;;5069563;28;20203;-80
2021/01/04 04:08:42;;;;;;;34.25;23.45;;;3.10;97.80;;;;;;5069683;28;20199;-80
2021/01/04 04:11:14;;;;;;;32.92;22.98;;;3.10;97.80;;;;;;5081773;28;20218;-80
2021/01/04 04:13:41;;;;;;;38.53;24.23;;;3.10;97.80;;;;;;5081795;28;20199;-79
2021/01/04 04:16:25;;;;;;;41.53;24.13;;;3.10;97.70;;;;;;5070844;28;20608;-79
2021/01/04 04:19:04;;;;;;;38.45;20.65;;;3.10;97.60;;;;;;5083210;28;20200;-80
2021/01/04 04:21:42;;;;;;;33.90;22.13;;;3.00;97.60;;;;;;5091311;28;20621;-79
2021/01/04 04:24:14;;;;;;;37.95;22.25;;;3.00;97.70;;;;;;5084233;28;20280;-79
2021/01/04 04:26:45;;;;;;;34.90;21.73;;;3.00;97.80;;;;;;5109613;28;20239;-79
2021/01/04 04:29:16;;;;;;;35.95;23.33;;;2.90;97.70;;;;;;5085291;28;20209;-79
2021/01/04 04:31:57;;;;;;;32.45;23.60;;;3.00;97.80;;;;;;5088874;28;20238;-79
2021/01/04 04:34:28;;;;;;;31.48;22.52;;;3.10;97.90;;;;;;5080699;28;20195;-79
2021/01/04 04:37:05;;;;;;;31.75;22.17;;;3.20;97.80;;;;;;5086720;28;20663;-80
2021/01/04 04:39:37;;;;;;;34.00;23.10;;;3.00;97.70;;;;;;5073111;28;20699;-79
2021/01/04 04:42:12;;;;;;;34.80;23.77;;;2.90;98.10;;;;;;5090724;28;20220;-80
2021/01/04 04:44:51;;;;;;;32.03;22.20;;;2.90;98.20;;;;;;5089691;28;20601;-80
2021/01/04 04:48:06;;;;;;;36.30;24.98;;;3.00;98.40;;;;;;5089730;28;20203;-80
2021/01/04 04:51:08;;;;;;;32.22;21.70;;;2.90;98.00;;;;;;5059431;28;20208;-79
2021/01/04 04:54:40;;;;;;;32.13;22.20;;;3.10;98.00;;;;;;5065648;28;20292;-80
2021/01/04 04:57:49;;;;;;;31.25;21.30;;;3.10;97.70;;;;;;5056624;28;20211;-79
2021/01/04 05:00:58;;;;;;;29.50;21.38;;;3.00;97.60;;;;;;5080526;28;20261;-80
2021/01/04 05:03:45;;;;;;;37.22;23.13;;;3.00;97.60;;;;;;5075819;28;20191;-80
2021/01/04 05:06:32;;;;;;;37.90;24.70;;;2.90;97.70;;;;;;5080688;28;20619;-79
2021/01/04 05:09:34;;;;;;;34.33;23.15;;;2.90;98.00;;;;;;5081490;28;20272;-79
2021/01/04 05:12:26;;;;;;;33.45;23.10;;;2.70;98.00;;;;;;5089169;28;20330;-79
2021/01/04 05:15:03;;;;;;;39.78;26.02;;;2.70;98.50;;;;;;5074199;28;20294;-79
2021/01/04 05:18:12;;;;;;;34.88;22.27;;;2.80;98.60;;;;;;5085512;28;20253;-79
2021/01/04 05:21:45;;;;;;;36.80;24.63;;;2.80;98.50;;;;;;5079800;28;20187;-79
2021/01/04 05:24:58;;;;;;;33.20;23.05;;;2.60;98.50;;;;;;5025568;28;20192;-80
2021/01/04 05:28:21;;;;;;;35.72;24.45;;;2.70;98.90;;;;;;5074115;28;20199;-79
2021/01/04 05:31:39;;;;;;;33.67;24.30;;;2.30;99.20;;;;;;5073443;28;20212;-79
2021/01/04 05:34:26;;;;;;;33.97;23.23;;;2.50;99.70;;;;;;5072726;28;20203;-80
2021/01/04 05:37:26;;;;;;;37.72;23.00;;;2.80;99.50;;;;;;5077118;28;20194;-80
2021/01/04 05:40:38;;;;;;;32.53;22.67;;;2.80;99.20;;;;;;5074692;28;20363;-80
2021/01/04 05:43:28;;;;;;;37.25;22.98;;;2.90;99.00;;;;;;5089944;28;20568;-80
2021/01/04 05:46:13;;;;;;;35.28;24.30;;;2.60;98.80;;;;;;5095270;28;20710;-80
2021/01/04 05:49:09;;;;;;;32.72;23.33;;;2.70;99.20;;;;;;5092546;28;20564;-80
2021/01/04 05:51:50;;;;;;;35.17;23.98;;;2.00;99.30;;;;;;5087874;28;20221;-80
2021/01/04 05:54:30;;;;;;;36.90;24.48;;;2.20;99.90;;;;;;5075186;28;20195;-80
2021/01/04 05:57:07;;;;;;;35.80;23.63;;;2.50;99.90;;;;;;5088670;28;20187;-80
2021/01/04 05:59:49;;;;;;;37.38;25.60;;;2.70;99.90;;;;;;5075349;28;20199;-80
2021/01/04 06:02:28;;;;;;;39.70;25.42;;;2.90;99.80;;;;;;5083560;28;20205;-80
2021/01/04 06:05:08;;;;;;;36.28;22.90;;;2.90;99.20;;;;;;5080664;28;20668;-80
2021/01/04 06:07:49;;;;;;;31.98;23.17;;;3.00;99.00;;;;;;5091303;28;20225;-81
2021/01/04 06:10:28;;;;;;;40.53;26.23;;;3.00;99.00;;;;;;5075946;28;20201;-80
2021/01/04 06:13:11;;;;;;;40.00;25.77;;;2.80;98.80;;;;;;5083262;28;20264;-80
2021/01/04 06:15:46;;;;;;;36.35;26.55;;;2.90;98.90;;;;;;5086038;28;20690;-81
2021/01/04 06:18:25;;;;;;;36.20;24.95;;;2.70;98.60;;;;;;5073096;28;20210;-80
2021/01/04 06:21:46;;;;;;;41.72;30.52;;;2.80;99.00;;;;;;5071768;28;20791;-80
2021/01/04 06:24:31;;;;;;;36.55;24.58;;;3.10;99.00;;;;;;5061443;28;20886;-80
2021/01/04 06:27:09;;;;;;;34.42;24.75;;;3.00;98.70;;;;;;5052060;28;20205;-80
2021/01/04 06:29:47;;;;;;;40.28;24.63;;;3.10;98.60;;;;;;5068882;28;20207;-80
2021/01/04 06:32:29;;;;;;;35.63;24.77;;;3.10;98.50;;;;;;5092215;28;20281;-80
2021/01/04 06:35:22;;;;;;;38.78;25.85;;;3.10;98.20;;;;;;5073125;28;20191;-80
2021/01/04 06:38:11;;;;;;;35.95;23.85;;;3.10;98.10;;;;;;5073809;28;20248;-80
2021/01/04 06:40:47;;;;;;;34.22;22.10;;;3.10;98.10;;;;;;5073224;28;20203;-80
2021/01/04 06:43:23;;;;;;;39.17;25.60;;;3.10;98.00;;;;;;5076494;28;20203;-80
2021/01/04 06:46:10;;;;;;;33.17;23.17;;;2.80;97.70;;;;;;5093276;28;20202;-80
2021/01/04 06:48:52;;;;;;;36.35;24.90;;;2.60;98.60;;;;;;5080240;28;20199;-80
2021/01/04 06:51:51;;;;;;;34.67;23.98;;;2.60;99.20;;;;;;5072103;28;20226;-80
2021/01/04 06:54:51;;;;;;;35.47;25.13;;;2.50;99.10;;;;;;5075326;28;20198;-80
2021/01/04 06:57:58;;;;;;;40.92;25.08;;;2.80;99.40;;;;;;5070789;28;20191;-80
2021/01/04 07:00:50;;;;;;;37.63;24.60;;;2.90;99.00;;;;;;5070433;28;20204;-81
2021/01/04 07:03:54;;;;;;;34.60;22.70;;;2.90;98.60;;;;;;5073656;28;21074;-80
2021/01/04 07:06:58;;;;;;;37.00;24.35;;;3.00;98.50;;;;;;5071886;28;20202;-80
2021/01/04 07:10:03;;;;;;;33.33;22.33;;;3.00;98.50;;;;;;5087617;28;20195;-80
2021/01/04 07:13:10;;;;;;;37.15;24.90;;;3.00;98.30;;;;;;5086559;28;20314;-80
2021/01/04 07:16:10;;;;;;;32.55;22.95;;;3.10;98.40;;;;;;5071947;28;20207;-81
2021/01/04 07:19:00;;;;;;;43.72;23.52;;;2.90;98.00;;;;;;5082203;28;20195;-80
2021/01/04 07:21:47;;;;;;;34.50;22.67;;;2.70;98.50;;;;;;5090955;28;20198;-80
2021/01/04 07:24:50;;;;;;;38.30;26.17;;;2.50;98.70;;;;;;5081281;28;20198;-80
2021/01/04 07:27:48;;;;;;;32.00;21.00;;;2.10;99.80;;;;;;5077171;28;20706;-80
2021/01/04 07:30:51;;;;;;;31.80;23.13;;;1.90;99.90;;;;;;5072541;28;20205;-80
2021/01/04 07:33:45;;;;;;;37.67;24.88;;;2.30;99.90;;;;;;5070860;28;20298;-81
2021/01/04 07:36:35;;;;;;;34.13;22.33;;;2.50;99.90;;;;;;5076948;28;20229;-80
2021/01/04 07:39:31;;;;;;;38.78;26.85;;;2.70;99.90;;;;;;5081024;28;20195;-81
2021/01/04 07:42:24;;;;;;;41.85;25.42;;;2.90;99.70;;;;;;5081978;28;20201;-80
2021/01/04 07:45:26;;;;;;;35.40;22.10;;;2.90;99.30;;;;;;5090780;28;20286;-80
2021/01/04 07:48:34;;;;;;;43.15;26.75;;;2.90;99.00;;;;;;5085737;28;20269;-80
2021/01/04 07:51:44;;;;;;;35.42;24.63;;;3.00;99.00;;;;;;5084536;28;20682;-80
2021/01/04 07:54:57;;;;;;;37.90;24.95;;;3.10;98.80;;;;;;5064794;28;20234;-80
2021/01/04 07:58:09;;;;;;;35.67;24.15;;;3.00;98.40;;;;;;5061421;28;20298;-80
2021/01/04 08:01:04;;;;;;;41.28;26.35;;;2.90;98.90;;;;;;5070848;28;20297;-80
2021/01/04 08:04:03;;;;;;;40.25;25.58;;;2.90;99.10;;;;;;5070651;28;20200;-80
2021/01/04 08:07:07;;;;;;;37.67;26.67;;;3.10;99.30;;;;;;5070656;28;20325;-80
2021/01/04 08:10:08;;;;;;;39.15;26.63;;;3.30;99.00;;;;;;5072572;28;20587;-80
2021/01/04 08:13:28;;;;;;;41.42;24.80;;;3.30;98.70;;;;;;5072171;28;20226;-81
2021/01/04 08:16:08;;;;;;;42.13;27.55;;;3.30;98.30;;;;;;5071677;28;20223;-81
2021/01/04 08:18:47;;;;;;;35.70;24.98;;;3.30;98.10;;;;;;5070975;28;20199;-81
2021/01/04 08:21:39;;;;;;;36.83;24.60;;;3.40;98.10;;;;;;5071995;28;20195;-80
2021/01/04 08:24:24;;;;;;;39.15;25.75;;;3.40;98.50;;;;;;5077177;28;20553;-80
2021/01/04 08:27:11;;;;;;;33.55;23.40;;;3.40;98.00;;;;;;5081848;28;20191;-80
2021/01/04 08:29:59;;;;;;;34.67;23.75;;;3.40;98.00;;;;;;5072352;28;20734;-80
2021/01/04 08:32:48;;;;;;;32.08;24.60;;;3.40;98.00;;;;;;5072332;28;20230;-81
2021/01/04 08:35:38;;;;;;;30.13;22.60;;;3.30;98.00;;;;;;5073790;28;20206;-81
2021/01/04 08:38:20;;;;;;;35.45;22.48;;;3.40;98.40;;;;;;5074691;28;20284;-80
2021/01/04 08:41:09;;;;;;;42.10;25.65;;;3.40;98.40;;;;;;5078708;28;20557;-82
2021/01/04 08:43:42;;;;;;;35.80;24.70;;;3.40;98.00;;;;;;5074965;28;20285;-81
2021/01/04 08:46:32;;;;;;;35.10;24.33;;;3.60;98.10;;;;;;5075049;28;20205;-81
2021/01/04 08:49:19;;;;;;;36.45;24.10;;;3.60;97.90;;;;;;5087093;28;20203;-81
2021/01/04 08:51:57;;;;;;;42.05;24.77;;;3.70;97.70;;;;;;5094020;28;20646;-81
2021/01/04 08:54:38;;;;;;;40.72;24.05;;;3.60;97.50;;;;;;5077429;28;20686;-81
2021/01/04 08:57:20;;;;;;;32.83;22.77;;;3.60;97.50;;;;;;5081281;28;20205;-80
2021/01/04 09:00:00;;;;;;;37.05;25.13;;;3.50;97.30;;;;;;5092129;28;20234;-81
2021/01/04 09:02:46;;;;;;;35.05;25.48;;;3.50;97.40;;;;;;5083490;28;21419;-80
2021/01/04 09:05:33;;;;;;;35.05;24.58;;;3.70;97.60;;;;;;5085396;28;20190;-81
2021/01/04 09:08:15;;;;;;;37.97;23.83;;;3.70;97.40;;;;;;5092806;28;20229;-81
2021/01/04 09:11:02;;;;;;;34.47;24.85;;;3.70;97.30;;;;;;5092966;28;20278;-81
2021/01/04 09:13:40;;;;;;;35.15;23.38;;;3.70;97.40;;;;;;5093848;28;20698;-81
2021/01/04 09:16:20;;;;;;;35.50;25.45;;;3.70;97.30;;;;;;5093891;28;20594;-81
2021/01/04 09:19:07;;;;;;;36.35;23.15;;;3.70;97.30;;;;;;5093503;28;20187;-81
2021/01/04 09:21:45;;;;;;;34.95;22.98;;;3.80;97.30;;;;;;5094078;28;20571;-81
2021/01/04 09:24:37;;;;;;;34.30;24.17;;;3.80;97.10;;;;;;5089147;28;20234;-81
2021/01/04 09:27:21;;;;;;;36.90;24.70;;;3.80;97.00;;;;;;5084007;28;20195;-81
2021/01/04 09:30:03;;;;;;;36.65;24.17;;;3.80;96.90;;;;;;5094379;28;20210;-80
2021/01/04 09:32:42;;;;;;;33.38;23.38;;;3.80;96.80;;;;;;5094044;28;20712;-80
2021/01/04 09:35:24;;;;;;;32.28;21.75;;;3.80;96.70;;;;;;5074387;28;20191;-82
2021/01/04 09:38:00;;;;;;;31.73;22.27;;;3.80;96.60;;;;;;5087848;28;20198;-82
2021/01/04 09:40:36;;;;;;;36.67;23.75;;;3.80;96.50;;;;;;5074294;28;20203;-80
2021/01/04 09:43:13;;;;;;;31.70;21.27;;;3.90;96.50;;;;;;5093185;28;20191;-80
2021/01/04 09:46:09;;;;;;;34.13;23.08;;;3.90;96.20;;;;;;5078114;28;20192;-80
2021/01/04 09:48:48;;;;;;;29.88;21.15;;;3.90;95.90;;;;;;5084211;28;20195;-80
2021/01/04 09:51:35;;;;;;;29.25;20.55;;;3.80;95.60;;;;;;5094700;28;20205;-80
2021/01/04 09:54:18;;;;;;;29.33;21.35;;;3.80;95.70;;;;;;5089120;28;20191;-80
2021/01/04 09:57:00;;;;;;;27.60;20.63;;;3.90;95.60;;;;;;5092209;28;20207;-80
2021/01/04 09:59:37;;;;;;;29.45;21.40;;;3.90;95.60;;;;;;5073724;28;20191;-80
2021/01/04 10:02:21;;;;;;;29.20;21.27;;;4.00;95.60;;;;;;5090469;28;20289;-80
2021/01/04 10:05:05;;;;;;;25.95;20.45;;;4.00;95.30;;;;;;5073277;28;20215;-80
2021/01/04 10:07:47;;;;;;;29.33;19.67;;;4.00;95.30;;;;;;5072962;28;20195;-80
2021/01/04 10:10:29;;;;;;;32.78;21.65;;;4.00;95.30;;;;;;5073828;28;20688;-80
2021/01/04 10:13:08;;;;;;;29.08;20.38;;;4.00;95.10;;;;;;5075157;28;20241;-79
2021/01/04 10:15:42;;;;;;;31.80;20.55;;;4.00;94.90;;;;;;5091841;28;20631;-80
2021/01/04 10:18:38;;;;;;;28.10;19.95;;;4.10;94.90;;;;;;5080219;28;20200;-80
2021/01/04 10:21:19;;;;;;;29.08;20.33;;;4.10;94.80;;;;;;5087211;28;20188;-80
2021/01/04 10:24:07;;;;;;;30.77;20.90;;;4.00;94.60;;;;;;5075757;28;20611;-80
2021/01/04 10:26:51;;;;;;;28.33;19.85;;;4.10;94.90;;;;;;5073242;28;20664;-79
2021/01/04 10:29:27;;;;;;;30.30;19.60;;;4.10;94.70;;;;;;5090911;28;20360;-80
2021/01/04 10:32:09;;;;;;;27.38;20.25;;;4.20;94.70;;;;;;5086169;28;20676;-81
2021/01/04 10:34:47;;;;;;;26.75;19.38;;;4.10;94.40;;;;;;5088690;28;20202;-79
2021/01/04 10:37:41;;;;;;;31.38;19.85;;;4.10;94.30;;;;;;5084839;28;20199;-81
2021/01/04 10:40:26;;;;;;;29.02;18.48;;;4.20;94.10;;;;;;5088113;28;20251;-80
2021/01/04 10:43:10;;;;;;;27.38;19.52;;;4.70;94.10;;;;;;5088368;28;20195;-80
2021/01/04 10:45:53;;;;;;;28.13;17.73;;;4.10;93.90;;;;;;5072136;28;20204;-80
2021/01/04 10:48:37;;;;;;;25.13;18.65;;;4.10;93.90;;;;;;5084181;28;20648;-80
2021/01/04 10:51:23;;;;;;;29.00;18.45;;;4.00;94.10;;;;;;5092331;28;20224;-79
2021/01/04 10:54:15;;;;;;;27.30;20.25;;;4.10;94.20;;;;;;5110320;27;20241;-80
2021/01/04 10:57:02;;;;;;;24.30;18.23;;;4.00;94.20;;;;;;5071629;28;20597;-80
2021/01/04 10:59:41;;;;;;;26.35;18.98;;;4.10;94.20;;;;;;5091179;28;20203;-80
2021/01/04 11:02:21;;;;;;;23.13;17.75;;;4.30;94.00;;;;;;5090204;28;20202;-80
2021/01/04 11:04:59;;;;;;;24.70;17.98;;;4.20;93.60;;;;;;5082600;28;20190;-80
2021/01/04 11:07:42;;;;;;;23.38;16.65;;;4.20;93.70;;;;;;5089300;28;20199;-79
2021/01/04 11:10:22;;;;;;;28.00;18.70;;;4.20;93.50;;;;;;5075412;28;20186;-80
2021/01/04 11:12:59;;;;;;;24.48;17.15;;;4.20;93.30;;;;;;5090477;28;20290;-80
2021/01/04 11:15:39;;;;;;;24.20;16.23;;;4.10;93.00;;;;;;5076548;28;20626;-80
2021/01/04 11:18:17;;;;;;;21.42;15.65;;;4.20;92.80;;;;;;5081110;28;20203;-80
2021/01/04 11:20:51;;;;;;;21.58;15.45;;;4.20;92.80;;;;;;5087195;28;20263;-79
2021/01/04 11:23:22;;;;;;;23.58;15.32;;;4.10;91.90;;;;;;5087993;28;20207;-80
2021/01/04 11:25:54;;;;;;;22.70;15.90;;;4.00;92.00;;;;;;5088676;28;20182;-80
2021/01/04 11:28:22;;;;;;;22.38;15.77;;;4.10;92.00;;;;;;5087927;28;20222;-80
2021/01/04 11:30:50;;;;;;;24.10;16.65;;;3.90;91.80;;;;;;5076043;28;20684;-80
2021/01/04 11:33:23;;;;;;;21.25;16.40;;;3.90;92.50;;;;;;5087371;28;20459;-80
2021/01/04 11:35:50;;;;;;;21.35;15.10;;;4.00;92.20;;;;;;5079809;28;20590;-80
2021/01/04 11:38:17;;;;;;;21.67;14.63;;;4.10;91.80;;;;;;5077180;28;20198;-79
2021/01/04 11:40:46;;;;;;;21.00;15.85;;;4.10;91.60;;;;;;5088926;28;20198;-80
2021/01/04 11:43:12;;;;;;;20.73;14.60;;;4.10;91.50;;;;;;5091030;28;20199;-79
2021/01/04 11:45:40;;;;;;;20.83;14.35;;;4.00;91.30;;;;;;5075332;28;20195;-80
2021/01/04 11:48:08;;;;;;;20.63;14.82;;;3.90;91.30;;;;;;5083427;28;20192;-80
2021/01/04 11:50:34;;;;;;;18.15;14.15;;;4.00;91.50;;;;;;5078893;28;20191;-80
2021/01/04 11:53:01;;;;;;;23.55;15.20;;;4.00;91.40;;;;;;5087352;28;20207;-80
2021/01/04 11:55:27;;;;;;;20.85;14.48;;;4.00;91.60;;;;;;5090122;28;20201;-81
2021/01/04 11:57:54;;;;;;;18.67;14.65;;;4.10;91.40;;;;;;5089561;28;20191;-80
2021/01/04 12:00:22;;;;;;;16.55;13.07;;;4.10;91.50;;;;;;5090078;28;20207;-81
2021/01/04 12:02:48;;;;;;;16.40;11.88;;;4.00;91.30;;;;;;5090471;28;20230;-80
2021/01/04 12:05:16;;;;;;;13.93;11.15;;;3.90;90.60;;;;;;5090373;28;20205;-80
2021/01/04 12:07:43;;;;;;;17.20;11.98;;;4.00;90.60;;;;;;5074582;28;20082;-80
2021/01/04 12:10:12;;;;;;;16.23;11.60;;;3.90;90.30;;;;;;5082792;28;20739;-80
2021/01/04 12:12:39;;;;;;;14.10;10.25;;;3.90;89.80;;;;;;5089774;28;20314;-80
2021/01/04 12:15:08;;;;;;;13.65;9.20;;;3.90;88.90;;;;;;5080302;28;20191;-80
2021/01/04 12:17:34;;;;;;;11.30;9.40;;;3.80;88.40;;;;;;5069855;28;20223;-80
2021/01/04 12:20:01;;;;;;;12.75;10.23;;;3.80;88.70;;;;;;5087783;28;20198;-80
2021/01/04 12:22:27;;;;;;;14.90;10.32;;;3.90;88.50;;;;;;5090812;28;20202;-80
2021/01/04 12:24:54;;;;;;;12.43;10.73;;;3.80;88.30;;;;;;5081654;28;20648;-80
2021/01/04 12:27:20;;;;;;;13.23;9.35;;;3.80;88.30;;;;;;5086732;28;20206;-80
2021/01/04 12:29:48;;;;;;;14.15;10.55;;;3.80;89.20;;;;;;5090553;28;20202;-80
2021/01/04 12:32:18;;;;;;;14.23;11.98;;;3.80;89.30;;;;;;5090133;28;20226;-80
2021/01/04 12:34:44;;;;;;;11.48;9.18;;;3.70;88.60;;;;;;5091455;28;20198;-80
2021/01/04 12:37:11;;;;;;;14.43;10.05;;;3.60;88.30;;;;;;5089884;28;20252;-80
2021/01/04 12:39:37;;;;;;;13.15;10.35;;;3.70;88.10;;;;;;5080185;28;20191;-80
2021/01/04 12:42:05;;;;;;;14.65;11.65;;;3.70;87.60;;;;;;5070725;28;20222;-80
2021/01/04 12:44:31;;;;;;;18.05;11.23;;;3.70;88.20;;;;;;5081071;28;20214;-80
2021/01/04 12:46:59;;;;;;;17.35;11.93;;;3.70;88.60;;;;;;5081242;28;20643;-80
2021/01/04 12:49:28;;;;;;;13.55;10.77;;;3.70;88.70;;;;;;5076945;28;20190;-80
2021/01/04 12:51:59;;;;;;;14.38;11.00;;;3.50;89.00;;;;;;5084933;28;20265;-80
2021/01/04 12:54:30;;;;;;;12.48;10.35;;;3.50;89.20;;;;;;5106457;28;20617;-80
2021/01/04 12:57:09;;;;;;;17.67;11.60;;;3.40;90.00;;;;;;5109921;27;20268;-80
2021/01/04 12:59:39;;;;;;;14.98;11.80;;;3.50;89.30;;;;;;5080553;28;20199;-80
2021/01/04 13:02:06;;;;;;;15.38;11.50;;;3.40;89.10;;;;;;5091065;28;20202;-80
2021/01/04 13:04:33;;;;;;;16.15;11.35;;;3.50;88.80;;;;;;5086032;28;20191;-81
2021/01/04 13:07:00;;;;;;;16.00;12.32;;;3.50;88.60;;;;;;5090801;28;20194;-80
2021/01/04 13:09:27;;;;;;;16.90;11.73;;;3.50;88.40;;;;;;5087196;28;20191;-80
2021/01/04 13:11:54;;;;;;;18.92;13.18;;;3.40;88.20;;;;;;5090985;28;20195;-80
2021/01/04 13:14:22;;;;;;;17.55;13.48;;;3.40;88.80;;;;;;5084195;28;20206;-79
2021/01/04 13:16:48;;;;;;;25.85;15.90;;;3.30;89.30;;;;;;5070328;28;20213;-80
2021/01/04 13:19:16;;;;;;;23.55;15.43;;;3.40;90.00;;;;;;5088905;28;20198;-80
2021/01/04 13:21:44;;;;;;;23.83;13.85;;;3.50;90.30;;;;;;5087678;28;20203;-80
2021/01/04 13:24:14;;;;;;;23.15;14.95;;;3.40;89.70;;;;;;5079540;28;20891;-80
2021/01/04 13:26:43;;;;;;;19.80;13.60;;;3.30;89.50;;;;;;5092657;28;20196;-80
2021/01/04 13:29:10;;;;;;;25.35;16.63;;;3.30;90.10;;;;;;5093245;28;20553;-80
2021/01/04 13:31:37;;;;;;;24.10;14.27;;;3.20;90.30;;;;;;5074635;28;20195;-79
2021/01/04 13:34:05;;;;;;;23.65;16.00;;;3.20;90.50;;;;;;5059419;28;20598;-80
2021/01/04 13:36:31;;;;;;;20.73;14.50;;;3.20;90.80;;;;;;5054371;28;20192;-80
2021/01/04 13:38:59;;;;;;;21.52;15.43;;;3.20;90.90;;;;;;5053714;28;20602;-80
2021/01/04 13:41:25;;;;;;;23.08;14.88;;;3.30;91.00;;;;;;5054150;28;20200;-80
2021/01/04 13:43:52;;;;;;;21.67;15.38;;;3.30;91.10;;;;;;5053672;28;20192;-79
2021/01/04 13:46:22;;;;;;;20.00;15.25;;;3.30;91.20;;;;;;5055027;28;20591;-80
2021/01/04 13:48:49;;;;;;;21.52;15.02;;;3.20;90.80;;;;;;5054325;28;20273;-80
2021/01/04 13:51:16;;;;;;;19.00;12.98;;;3.20;90.70;;;;;;5054960;28;20680;-80
2021/01/04 13:53:42;;;;;;;20.25;13.52;;;3.10;90.50;;;;;;5054392;28;20238;-80